Gilbert, Arizona
Current Conditions -  °F | °C
As of 7:47 AM on Wednesday 22 Oct 2014 (Local Time) from KCHD Reporting Station
Clear Clear  
Wind Chill: 19°   Ceiling: Unl
Heat Index: 19°   Visibility: 40mi
Dew Point: 13°   Wind: 0mph
Humidity: 68%   Direction: NA
Pressure: 29.95"   Gusts: NA
Location:  33.33°N, 111.78°W
Report Text: KCHD 221447Z 00000KT 40SM SKC 19/13 A2995
Loading
Personal Weather Stations






























Interactive Weather Map
Tropical Storm Tracking
New forecast layout! Learn more

10-Day Weather Forecast

Advertisements
Track Severe Weather on mobile